sensor_id;sensor_type;location;lat;lon;timestamp;P1;durP1;ratioP1;P2;durP2;ratioP2
67348;SDS011;54234;50.320;3.474;2022-07-29T00:00:35;0.30;;;0.30;;
67348;SDS011;54234;50.320;3.474;2022-07-29T00:03:01;0.30;;;0.30;;
67348;SDS011;54234;50.320;3.474;2022-07-29T00:05:26;0.30;;;0.30;;
67348;SDS011;54234;50.320;3.474;2022-07-29T00:07:52;0.30;;;0.30;;
67348;SDS011;54234;50.320;3.474;2022-07-29T00:10:17;0.30;;;0.30;;
67348;SDS011;54234;50.320;3.474;2022-07-29T00:12:42;0.30;;;0.30;;
67348;SDS011;54234;50.320;3.474;2022-07-29T00:15:07;0.30;;;0.30;;
67348;SDS011;54234;50.320;3.474;2022-07-29T00:17:33;0.30;;;0.30;;
67348;SDS011;54234;50.320;3.474;2022-07-29T00:19:59;0.30;;;0.30;;
67348;SDS011;54234;50.320;3.474;2022-07-29T00:22:24;0.30;;;0.30;;
67348;SDS011;54234;50.320;3.474;2022-07-29T00:24:49;0.30;;;0.30;;
67348;SDS011;54234;50.320;3.474;2022-07-29T00:27:14;0.30;;;0.30;;
67348;SDS011;54234;50.320;3.474;2022-07-29T00:29:40;0.30;;;0.30;;
67348;SDS011;54234;50.320;3.474;2022-07-29T00:32:05;0.30;;;0.30;;
67348;SDS011;54234;50.320;3.474;2022-07-29T00:34:30;0.30;;;0.30;;
67348;SDS011;54234;50.320;3.474;2022-07-29T00:37:14;0.30;;;0.30;;
67348;SDS011;54234;50.320;3.474;2022-07-29T00:39:39;0.30;;;0.30;;
67348;SDS011;54234;50.320;3.474;2022-07-29T00:42:04;0.30;;;0.30;;
67348;SDS011;54234;50.320;3.474;2022-07-29T00:44:30;0.30;;;0.30;;
67348;SDS011;54234;50.320;3.474;2022-07-29T00:46:55;0.30;;;0.30;;
67348;SDS011;54234;50.320;3.474;2022-07-29T00:49:20;0.30;;;0.30;;
67348;SDS011;54234;50.320;3.474;2022-07-29T00:51:46;0.30;;;0.30;;
67348;SDS011;54234;50.320;3.474;2022-07-29T00:54:11;0.30;;;0.30;;
67348;SDS011;54234;50.320;3.474;2022-07-29T00:56:37;0.30;;;0.30;;
67348;SDS011;54234;50.320;3.474;2022-07-29T00:59:02;0.30;;;0.30;;
67348;SDS011;54234;50.320;3.474;2022-07-29T01:01:27;0.30;;;0.30;;
67348;SDS011;54234;50.320;3.474;2022-07-29T01:03:53;0.30;;;0.30;;
67348;SDS011;54234;50.320;3.474;2022-07-29T01:06:19;0.30;;;0.30;;
67348;SDS011;54234;50.320;3.474;2022-07-29T01:08:45;0.30;;;0.30;;
67348;SDS011;54234;50.320;3.474;2022-07-29T01:11:12;0.30;;;0.30;;
67348;SDS011;54234;50.320;3.474;2022-07-29T01:13:37;0.30;;;0.30;;
67348;SDS011;54234;50.320;3.474;2022-07-29T01:16:04;0.30;;;0.30;;
67348;SDS011;54234;50.320;3.474;2022-07-29T01:18:34;0.30;;;0.30;;
67348;SDS011;54234;50.320;3.474;2022-07-29T01:21:10;0.30;;;0.30;;
67348;SDS011;54234;50.320;3.474;2022-07-29T01:28:58;0.30;;;0.30;;
67348;SDS011;54234;50.320;3.474;2022-07-29T01:31:27;0.30;;;0.30;;
67348;SDS011;54234;50.320;3.474;2022-07-29T01:33:58;0.30;;;0.30;;
67348;SDS011;54234;50.320;3.474;2022-07-29T01:36:28;0.30;;;0.30;;
67348;SDS011;54234;50.320;3.474;2022-07-29T01:39:04;0.30;;;0.30;;
67348;SDS011;54234;50.320;3.474;2022-07-29T01:41:31;0.30;;;0.30;;
67348;SDS011;54234;50.320;3.474;2022-07-29T01:43:59;0.30;;;0.30;;
67348;SDS011;54234;50.320;3.474;2022-07-29T01:46:35;0.30;;;0.30;;
67348;SDS011;54234;50.320;3.474;2022-07-29T01:49:12;0.30;;;0.30;;
67348;SDS011;54234;50.320;3.474;2022-07-29T01:56:32;0.30;;;0.30;;
67348;SDS011;54234;50.320;3.474;2022-07-29T01:58:58;0.30;;;0.30;;
67348;SDS011;54234;50.320;3.474;2022-07-29T02:01:24;0.30;;;0.30;;
67348;SDS011;54234;50.320;3.474;2022-07-29T02:03:50;0.30;;;0.30;;
67348;SDS011;54234;50.320;3.474;2022-07-29T02:06:17;0.30;;;0.30;;
67348;SDS011;54234;50.320;3.474;2022-07-29T02:08:43;0.30;;;0.30;;
67348;SDS011;54234;50.320;3.474;2022-07-29T02:11:10;0.30;;;0.30;;
67348;SDS011;54234;50.320;3.474;2022-07-29T02:13:36;0.30;;;0.30;;
67348;SDS011;54234;50.320;3.474;2022-07-29T02:16:02;0.30;;;0.30;;
67348;SDS011;54234;50.320;3.474;2022-07-29T02:18:30;0.30;;;0.30;;
67348;SDS011;54234;50.320;3.474;2022-07-29T02:20:55;0.30;;;0.30;;
67348;SDS011;54234;50.320;3.474;2022-07-29T02:23:22;0.30;;;0.30;;
67348;SDS011;54234;50.320;3.474;2022-07-29T02:25:48;0.30;;;0.30;;
67348;SDS011;54234;50.320;3.474;2022-07-29T02:28:14;0.30;;;0.30;;
67348;SDS011;54234;50.320;3.474;2022-07-29T02:30:41;0.30;;;0.30;;
67348;SDS011;54234;50.320;3.474;2022-07-29T02:33:07;0.22;;;0.22;;
67348;SDS011;54234;50.320;3.474;2022-07-29T02:35:33;0.30;;;0.30;;
67348;SDS011;54234;50.320;3.474;2022-07-29T02:37:59;0.30;;;0.30;;
67348;SDS011;54234;50.320;3.474;2022-07-29T02:40:42;0.30;;;0.30;;
67348;SDS011;54234;50.320;3.474;2022-07-29T02:43:08;0.30;;;0.30;;
67348;SDS011;54234;50.320;3.474;2022-07-29T02:45:34;0.30;;;0.30;;
67348;SDS011;54234;50.320;3.474;2022-07-29T02:48:00;0.30;;;0.30;;
67348;SDS011;54234;50.320;3.474;2022-07-29T02:50:30;0.30;;;0.30;;
67348;SDS011;54234;50.320;3.474;2022-07-29T02:52:58;0.30;;;0.30;;
67348;SDS011;54234;50.320;3.474;2022-07-29T02:55:44;0.30;;;0.30;;
67348;SDS011;54234;50.320;3.474;2022-07-29T02:58:32;0.30;;;0.30;;
67348;SDS011;54234;50.320;3.474;2022-07-29T03:01:03;0.30;;;0.30;;
67348;SDS011;54234;50.320;3.474;2022-07-29T03:03:30;0.30;;;0.30;;
67348;SDS011;54234;50.320;3.474;2022-07-29T03:05:57;0.30;;;0.30;;
67348;SDS011;54234;50.320;3.474;2022-07-29T03:08:23;0.28;;;0.28;;
67348;SDS011;54234;50.320;3.474;2022-07-29T03:10:49;0.30;;;0.30;;
67348;SDS011;54234;50.320;3.474;2022-07-29T03:13:15;0.30;;;0.30;;
67348;SDS011;54234;50.320;3.474;2022-07-29T03:15:42;0.30;;;0.30;;
67348;SDS011;54234;50.320;3.474;2022-07-29T03:18:08;0.30;;;0.30;;
67348;SDS011;54234;50.320;3.474;2022-07-29T03:20:33;0.30;;;0.30;;
67348;SDS011;54234;50.320;3.474;2022-07-29T03:22:59;0.30;;;0.30;;
67348;SDS011;54234;50.320;3.474;2022-07-29T03:25:24;0.30;;;0.30;;
67348;SDS011;54234;50.320;3.474;2022-07-29T03:27:49;0.30;;;0.30;;
67348;SDS011;54234;50.320;3.474;2022-07-29T03:30:15;0.30;;;0.30;;
67348;SDS011;54234;50.320;3.474;2022-07-29T03:32:40;0.30;;;0.30;;
67348;SDS011;54234;50.320;3.474;2022-07-29T03:35:06;0.30;;;0.30;;
67348;SDS011;54234;50.320;3.474;2022-07-29T03:37:31;0.30;;;0.30;;
67348;SDS011;54234;50.320;3.474;2022-07-29T03:39:58;0.30;;;0.30;;
67348;SDS011;54234;50.320;3.474;2022-07-29T03:42:24;0.30;;;0.30;;
67348;SDS011;54234;50.320;3.474;2022-07-29T03:44:50;0.30;;;0.30;;
67348;SDS011;54234;50.320;3.474;2022-07-29T03:47:17;0.30;;;0.30;;
67348;SDS011;54234;50.320;3.474;2022-07-29T03:49:44;0.30;;;0.30;;
67348;SDS011;54234;50.320;3.474;2022-07-29T03:52:11;0.30;;;0.30;;
67348;SDS011;54234;50.320;3.474;2022-07-29T03:54:37;0.30;;;0.30;;
67348;SDS011;54234;50.320;3.474;2022-07-29T03:57:02;0.30;;;0.30;;
67348;SDS011;54234;50.320;3.474;2022-07-29T03:59:28;0.30;;;0.30;;
67348;SDS011;54234;50.320;3.474;2022-07-29T04:01:55;0.30;;;0.30;;
67348;SDS011;54234;50.320;3.474;2022-07-29T04:04:21;0.30;;;0.30;;
67348;SDS011;54234;50.320;3.474;2022-07-29T04:06:46;0.30;;;0.30;;
67348;SDS011;54234;50.320;3.474;2022-07-29T04:09:12;0.30;;;0.30;;
67348;SDS011;54234;50.320;3.474;2022-07-29T04:11:40;0.30;;;0.30;;
67348;SDS011;54234;50.320;3.474;2022-07-29T04:14:06;0.30;;;0.30;;
67348;SDS011;54234;50.320;3.474;2022-07-29T04:16:31;0.30;;;0.30;;
67348;SDS011;54234;50.320;3.474;2022-07-29T04:18:57;0.30;;;0.30;;
67348;SDS011;54234;50.320;3.474;2022-07-29T04:21:22;0.30;;;0.30;;
67348;SDS011;54234;50.320;3.474;2022-07-29T04:23:47;0.30;;;0.30;;
67348;SDS011;54234;50.320;3.474;2022-07-29T04:26:15;0.30;;;0.30;;
67348;SDS011;54234;50.320;3.474;2022-07-29T04:28:40;0.30;;;0.30;;
67348;SDS011;54234;50.320;3.474;2022-07-29T04:31:07;0.30;;;0.30;;
67348;SDS011;54234;50.320;3.474;2022-07-29T04:33:32;0.30;;;0.30;;
67348;SDS011;54234;50.320;3.474;2022-07-29T04:35:57;0.30;;;0.30;;
67348;SDS011;54234;50.320;3.474;2022-07-29T04:38:23;0.30;;;0.30;;
67348;SDS011;54234;50.320;3.474;2022-07-29T04:40:48;0.30;;;0.30;;
67348;SDS011;54234;50.320;3.474;2022-07-29T04:43:14;0.30;;;0.30;;
67348;SDS011;54234;50.320;3.474;2022-07-29T04:45:39;0.30;;;0.30;;
67348;SDS011;54234;50.320;3.474;2022-07-29T04:48:05;0.30;;;0.30;;
67348;SDS011;54234;50.320;3.474;2022-07-29T04:50:30;0.30;;;0.30;;
67348;SDS011;54234;50.320;3.474;2022-07-29T04:52:55;0.30;;;0.30;;
67348;SDS011;54234;50.320;3.474;2022-07-29T04:55:20;0.30;;;0.30;;
67348;SDS011;54234;50.320;3.474;2022-07-29T04:57:46;0.30;;;0.30;;
67348;SDS011;54234;50.320;3.474;2022-07-29T05:00:11;0.30;;;0.30;;
67348;SDS011;54234;50.320;3.474;2022-07-29T05:02:37;0.20;;;0.20;;
67348;SDS011;54234;50.320;3.474;2022-07-29T05:05:02;0.30;;;0.30;;
67348;SDS011;54234;50.320;3.474;2022-07-29T05:07:27;0.30;;;0.30;;
67348;SDS011;54234;50.320;3.474;2022-07-29T05:09:52;0.30;;;0.30;;
67348;SDS011;54234;50.320;3.474;2022-07-29T05:12:18;0.30;;;0.30;;
67348;SDS011;54234;50.320;3.474;2022-07-29T05:14:43;0.30;;;0.30;;
67348;SDS011;54234;50.320;3.474;2022-07-29T05:17:08;0.30;;;0.30;;
67348;SDS011;54234;50.320;3.474;2022-07-29T05:19:33;0.30;;;0.30;;
67348;SDS011;54234;50.320;3.474;2022-07-29T05:21:58;0.30;;;0.30;;
67348;SDS011;54234;50.320;3.474;2022-07-29T05:24:25;0.30;;;0.30;;
67348;SDS011;54234;50.320;3.474;2022-07-29T05:26:50;0.30;;;0.30;;
67348;SDS011;54234;50.320;3.474;2022-07-29T05:29:15;0.30;;;0.30;;
67348;SDS011;54234;50.320;3.474;2022-07-29T05:31:40;0.30;;;0.30;;
67348;SDS011;54234;50.320;3.474;2022-07-29T05:34:05;0.30;;;0.30;;
67348;SDS011;54234;50.320;3.474;2022-07-29T05:36:31;0.30;;;0.30;;
67348;SDS011;54234;50.320;3.474;2022-07-29T05:38:56;0.30;;;0.30;;
67348;SDS011;54234;50.320;3.474;2022-07-29T05:41:21;0.30;;;0.30;;
67348;SDS011;54234;50.320;3.474;2022-07-29T05:43:46;0.30;;;0.30;;
67348;SDS011;54234;50.320;3.474;2022-07-29T05:46:11;0.30;;;0.30;;
67348;SDS011;54234;50.320;3.474;2022-07-29T05:48:37;0.30;;;0.30;;
67348;SDS011;54234;50.320;3.474;2022-07-29T05:51:03;0.30;;;0.30;;
67348;SDS011;54234;50.320;3.474;2022-07-29T05:53:29;0.30;;;0.30;;
67348;SDS011;54234;50.320;3.474;2022-07-29T05:55:55;0.30;;;0.30;;
67348;SDS011;54234;50.320;3.474;2022-07-29T05:58:20;0.30;;;0.30;;
67348;SDS011;54234;50.320;3.474;2022-07-29T06:00:45;0.30;;;0.30;;
67348;SDS011;54234;50.320;3.474;2022-07-29T06:03:10;0.30;;;0.30;;
67348;SDS011;54234;50.320;3.474;2022-07-29T06:05:36;0.30;;;0.30;;
67348;SDS011;54234;50.320;3.474;2022-07-29T06:08:02;0.30;;;0.30;;
67348;SDS011;54234;50.320;3.474;2022-07-29T06:10:27;0.30;;;0.30;;
67348;SDS011;54234;50.320;3.474;2022-07-29T06:12:53;0.30;;;0.30;;
67348;SDS011;54234;50.320;3.474;2022-07-29T06:15:18;0.30;;;0.30;;
67348;SDS011;54234;50.320;3.474;2022-07-29T06:17:43;0.30;;;0.30;;
67348;SDS011;54234;50.320;3.474;2022-07-29T06:20:09;0.30;;;0.30;;
67348;SDS011;54234;50.320;3.474;2022-07-29T06:22:34;0.20;;;0.20;;
67348;SDS011;54234;50.320;3.474;2022-07-29T06:25:00;0.30;;;0.30;;
67348;SDS011;54234;50.320;3.474;2022-07-29T06:27:25;0.30;;;0.30;;
67348;SDS011;54234;50.320;3.474;2022-07-29T06:29:51;0.30;;;0.30;;
67348;SDS011;54234;50.320;3.474;2022-07-29T06:32:16;0.30;;;0.30;;
67348;SDS011;54234;50.320;3.474;2022-07-29T06:34:41;0.30;;;0.30;;
67348;SDS011;54234;50.320;3.474;2022-07-29T06:37:07;0.30;;;0.30;;
67348;SDS011;54234;50.320;3.474;2022-07-29T06:39:33;0.30;;;0.30;;
67348;SDS011;54234;50.320;3.474;2022-07-29T06:41:59;0.30;;;0.30;;
67348;SDS011;54234;50.320;3.474;2022-07-29T06:44:24;0.30;;;0.30;;
67348;SDS011;54234;50.320;3.474;2022-07-29T06:46:49;0.30;;;0.30;;
67348;SDS011;54234;50.320;3.474;2022-07-29T06:49:16;0.30;;;0.30;;
67348;SDS011;54234;50.320;3.474;2022-07-29T06:51:41;0.30;;;0.30;;
67348;SDS011;54234;50.320;3.474;2022-07-29T06:54:07;0.30;;;0.30;;
67348;SDS011;54234;50.320;3.474;2022-07-29T06:56:32;0.30;;;0.30;;
67348;SDS011;54234;50.320;3.474;2022-07-29T06:58:58;0.30;;;0.30;;
67348;SDS011;54234;50.320;3.474;2022-07-29T07:01:23;0.30;;;0.30;;
67348;SDS011;54234;50.320;3.474;2022-07-29T07:03:48;0.30;;;0.30;;
67348;SDS011;54234;50.320;3.474;2022-07-29T07:06:13;0.30;;;0.30;;
67348;SDS011;54234;50.320;3.474;2022-07-29T07:08:39;0.30;;;0.30;;
67348;SDS011;54234;50.320;3.474;2022-07-29T07:11:04;0.30;;;0.30;;
67348;SDS011;54234;50.320;3.474;2022-07-29T07:13:31;0.30;;;0.30;;
67348;SDS011;54234;50.320;3.474;2022-07-29T07:15:59;0.30;;;0.30;;
67348;SDS011;54234;50.320;3.474;2022-07-29T07:18:24;0.30;;;0.30;;
67348;SDS011;54234;50.320;3.474;2022-07-29T07:20:49;0.30;;;0.30;;
67348;SDS011;54234;50.320;3.474;2022-07-29T07:23:14;0.30;;;0.30;;
67348;SDS011;54234;50.320;3.474;2022-07-29T07:25:40;0.30;;;0.30;;
67348;SDS011;54234;50.320;3.474;2022-07-29T07:28:05;0.30;;;0.30;;
67348;SDS011;54234;50.320;3.474;2022-07-29T07:30:30;0.30;;;0.30;;
67348;SDS011;54234;50.320;3.474;2022-07-29T07:32:55;0.30;;;0.30;;
67348;SDS011;54234;50.320;3.474;2022-07-29T07:35:21;0.30;;;0.30;;
67348;SDS011;54234;50.320;3.474;2022-07-29T07:37:46;0.30;;;0.30;;
67348;SDS011;54234;50.320;3.474;2022-07-29T07:40:12;0.30;;;0.30;;
67348;SDS011;54234;50.320;3.474;2022-07-29T07:42:38;0.30;;;0.30;;
67348;SDS011;54234;50.320;3.474;2022-07-29T07:45:03;0.30;;;0.30;;
67348;SDS011;54234;50.320;3.474;2022-07-29T07:47:29;0.30;;;0.30;;
67348;SDS011;54234;50.320;3.474;2022-07-29T07:49:55;0.30;;;0.30;;
67348;SDS011;54234;50.320;3.474;2022-07-29T07:52:20;0.30;;;0.30;;
67348;SDS011;54234;50.320;3.474;2022-07-29T07:54:46;0.30;;;0.30;;
67348;SDS011;54234;50.320;3.474;2022-07-29T07:57:12;0.30;;;0.30;;
67348;SDS011;54234;50.320;3.474;2022-07-29T07:59:37;0.30;;;0.30;;
67348;SDS011;54234;50.320;3.474;2022-07-29T08:02:03;0.30;;;0.30;;
67348;SDS011;54234;50.320;3.474;2022-07-29T08:04:28;0.30;;;0.30;;
67348;SDS011;54234;50.320;3.474;2022-07-29T08:06:53;0.30;;;0.30;;
67348;SDS011;54234;50.320;3.474;2022-07-29T08:09:19;0.30;;;0.30;;
67348;SDS011;54234;50.320;3.474;2022-07-29T08:11:45;0.30;;;0.30;;
67348;SDS011;54234;50.320;3.474;2022-07-29T08:14:10;0.30;;;0.30;;
67348;SDS011;54234;50.320;3.474;2022-07-29T08:16:35;0.30;;;0.30;;
67348;SDS011;54234;50.320;3.474;2022-07-29T08:19:00;0.30;;;0.30;;
67348;SDS011;54234;50.320;3.474;2022-07-29T08:21:26;0.30;;;0.30;;
67348;SDS011;54234;50.320;3.474;2022-07-29T08:23:51;0.40;;;0.40;;
67348;SDS011;54234;50.320;3.474;2022-07-29T08:26:40;0.30;;;0.30;;
67348;SDS011;54234;50.320;3.474;2022-07-29T08:29:05;0.37;;;0.37;;
67348;SDS011;54234;50.320;3.474;2022-07-29T08:31:30;0.32;;;0.32;;
67348;SDS011;54234;50.320;3.474;2022-07-29T08:33:56;0.30;;;0.30;;
67348;SDS011;54234;50.320;3.474;2022-07-29T08:36:21;0.30;;;0.30;;
67348;SDS011;54234;50.320;3.474;2022-07-29T08:38:46;0.30;;;0.30;;
67348;SDS011;54234;50.320;3.474;2022-07-29T08:41:13;0.30;;;0.30;;
67348;SDS011;54234;50.320;3.474;2022-07-29T08:43:39;0.30;;;0.30;;
67348;SDS011;54234;50.320;3.474;2022-07-29T08:46:05;0.30;;;0.30;;
67348;SDS011;54234;50.320;3.474;2022-07-29T08:48:31;0.30;;;0.30;;
67348;SDS011;54234;50.320;3.474;2022-07-29T08:50:57;0.30;;;0.30;;
67348;SDS011;54234;50.320;3.474;2022-07-29T08:53:24;0.30;;;0.30;;
67348;SDS011;54234;50.320;3.474;2022-07-29T08:55:51;0.30;;;0.30;;
67348;SDS011;54234;50.320;3.474;2022-07-29T08:58:17;0.30;;;0.30;;
67348;SDS011;54234;50.320;3.474;2022-07-29T09:00:47;0.30;;;0.30;;
67348;SDS011;54234;50.320;3.474;2022-07-29T09:03:17;0.30;;;0.30;;
67348;SDS011;54234;50.320;3.474;2022-07-29T09:05:43;0.30;;;0.30;;
67348;SDS011;54234;50.320;3.474;2022-07-29T09:08:09;0.30;;;0.30;;
67348;SDS011;54234;50.320;3.474;2022-07-29T09:10:35;0.30;;;0.30;;
67348;SDS011;54234;50.320;3.474;2022-07-29T09:13:01;0.37;;;0.37;;
67348;SDS011;54234;50.320;3.474;2022-07-29T09:15:26;0.40;;;0.40;;
67348;SDS011;54234;50.320;3.474;2022-07-29T09:17:51;0.30;;;0.30;;
67348;SDS011;54234;50.320;3.474;2022-07-29T09:20:17;0.40;;;0.40;;
67348;SDS011;54234;50.320;3.474;2022-07-29T09:22:43;0.30;;;0.30;;
67348;SDS011;54234;50.320;3.474;2022-07-29T09:25:10;0.30;;;0.30;;
67348;SDS011;54234;50.320;3.474;2022-07-29T09:27:36;0.30;;;0.30;;
67348;SDS011;54234;50.320;3.474;2022-07-29T09:30:05;0.30;;;0.30;;
67348;SDS011;54234;50.320;3.474;2022-07-29T09:32:34;0.40;;;0.40;;
67348;SDS011;54234;50.320;3.474;2022-07-29T09:35:17;0.40;;;0.40;;
67348;SDS011;54234;50.320;3.474;2022-07-29T09:37:43;0.40;;;0.40;;
67348;SDS011;54234;50.320;3.474;2022-07-29T09:40:15;0.40;;;0.40;;
67348;SDS011;54234;50.320;3.474;2022-07-29T09:42:41;0.40;;;0.40;;
67348;SDS011;54234;50.320;3.474;2022-07-29T09:45:06;0.50;;;0.50;;
67348;SDS011;54234;50.320;3.474;2022-07-29T09:47:42;0.40;;;0.40;;
67348;SDS011;54234;50.320;3.474;2022-07-29T09:50:09;0.50;;;0.50;;
67348;SDS011;54234;50.320;3.474;2022-07-29T09:52:44;0.60;;;0.60;;
67348;SDS011;54234;50.320;3.474;2022-07-29T09:55:09;0.50;;;0.50;;
67348;SDS011;54234;50.320;3.474;2022-07-29T09:57:37;0.50;;;0.50;;
67348;SDS011;54234;50.320;3.474;2022-07-29T10:00:07;0.50;;;0.50;;
67348;SDS011;54234;50.320;3.474;2022-07-29T10:02:34;0.50;;;0.50;;
67348;SDS011;54234;50.320;3.474;2022-07-29T10:05:00;0.60;;;0.60;;
67348;SDS011;54234;50.320;3.474;2022-07-29T10:07:26;0.60;;;0.60;;
67348;SDS011;54234;50.320;3.474;2022-07-29T10:09:54;0.52;;;0.52;;
67348;SDS011;54234;50.320;3.474;2022-07-29T10:12:20;0.50;;;0.50;;
67348;SDS011;54234;50.320;3.474;2022-07-29T10:14:45;0.53;;;0.53;;
67348;SDS011;54234;50.320;3.474;2022-07-29T10:17:11;0.60;;;0.60;;
67348;SDS011;54234;50.320;3.474;2022-07-29T10:19:36;0.60;;;0.60;;
67348;SDS011;54234;50.320;3.474;2022-07-29T10:22:03;0.70;;;0.70;;
67348;SDS011;54234;50.320;3.474;2022-07-29T10:24:29;0.60;;;0.60;;
67348;SDS011;54234;50.320;3.474;2022-07-29T10:26:55;0.60;;;0.60;;
67348;SDS011;54234;50.320;3.474;2022-07-29T10:29:20;0.60;;;0.60;;
67348;SDS011;54234;50.320;3.474;2022-07-29T10:32:08;0.60;;;0.60;;
67348;SDS011;54234;50.320;3.474;2022-07-29T10:34:35;0.60;;;0.60;;
67348;SDS011;54234;50.320;3.474;2022-07-29T10:37:20;0.70;;;0.70;;
67348;SDS011;54234;50.320;3.474;2022-07-29T10:40:00;0.70;;;0.70;;
67348;SDS011;54234;50.320;3.474;2022-07-29T10:42:48;0.70;;;0.70;;
67348;SDS011;54234;50.320;3.474;2022-07-29T10:45:14;0.70;;;0.70;;
67348;SDS011;54234;50.320;3.474;2022-07-29T10:47:41;0.80;;;0.80;;
67348;SDS011;54234;50.320;3.474;2022-07-29T10:50:07;0.70;;;0.70;;
67348;SDS011;54234;50.320;3.474;2022-07-29T10:55:31;0.70;;;0.70;;
67348;SDS011;54234;50.320;3.474;2022-07-29T11:00:38;0.60;;;0.60;;
67348;SDS011;54234;50.320;3.474;2022-07-29T11:03:03;0.60;;;0.60;;
67348;SDS011;54234;50.320;3.474;2022-07-29T11:05:29;0.60;;;0.60;;
67348;SDS011;54234;50.320;3.474;2022-07-29T11:10:33;0.60;;;0.60;;
67348;SDS011;54234;50.320;3.474;2022-07-29T11:12:59;0.70;;;0.70;;
67348;SDS011;54234;50.320;3.474;2022-07-29T11:15:24;0.70;;;0.70;;
67348;SDS011;54234;50.320;3.474;2022-07-29T11:22:58;0.90;;;0.90;;
67348;SDS011;54234;50.320;3.474;2022-07-29T11:25:24;1.10;;;1.10;;
67348;SDS011;54234;50.320;3.474;2022-07-29T11:27:49;1.20;;;1.20;;
67348;SDS011;54234;50.320;3.474;2022-07-29T11:30:17;1.10;;;1.10;;
67348;SDS011;54234;50.320;3.474;2022-07-29T11:32:42;1.10;;;1.10;;
67348;SDS011;54234;50.320;3.474;2022-07-29T11:35:16;1.30;;;1.30;;
67348;SDS011;54234;50.320;3.474;2022-07-29T11:37:42;1.20;;;1.20;;
67348;SDS011;54234;50.320;3.474;2022-07-29T11:40:08;1.10;;;1.10;;
67348;SDS011;54234;50.320;3.474;2022-07-29T11:47:46;0.90;;;0.90;;
67348;SDS011;54234;50.320;3.474;2022-07-29T11:50:13;1.00;;;1.00;;
67348;SDS011;54234;50.320;3.474;2022-07-29T11:52:39;1.00;;;1.00;;
67348;SDS011;54234;50.320;3.474;2022-07-29T11:55:08;1.10;;;1.10;;
67348;SDS011;54234;50.320;3.474;2022-07-29T11:57:34;1.20;;;1.20;;
67348;SDS011;54234;50.320;3.474;2022-07-29T11:59:59;0.93;;;0.93;;
67348;SDS011;54234;50.320;3.474;2022-07-29T12:02:25;0.90;;;0.90;;
67348;SDS011;54234;50.320;3.474;2022-07-29T12:05:02;0.90;;;0.90;;
67348;SDS011;54234;50.320;3.474;2022-07-29T12:09:53;0.90;;;0.90;;
67348;SDS011;54234;50.320;3.474;2022-07-29T12:12:18;1.00;;;1.00;;
67348;SDS011;54234;50.320;3.474;2022-07-29T12:14:44;1.10;;;1.10;;
67348;SDS011;54234;50.320;3.474;2022-07-29T12:17:34;1.30;;;1.30;;
67348;SDS011;54234;50.320;3.474;2022-07-29T12:19:58;1.20;;;1.20;;
67348;SDS011;54234;50.320;3.474;2022-07-29T12:22:28;1.20;;;1.20;;
67348;SDS011;54234;50.320;3.474;2022-07-29T12:24:54;1.13;;;1.13;;
67348;SDS011;54234;50.320;3.474;2022-07-29T12:27:19;1.20;;;1.20;;
67348;SDS011;54234;50.320;3.474;2022-07-29T12:29:45;1.30;;;1.30;;
67348;SDS011;54234;50.320;3.474;2022-07-29T12:32:10;1.40;;;1.40;;
67348;SDS011;54234;50.320;3.474;2022-07-29T12:34:35;1.20;;;1.20;;
67348;SDS011;54234;50.320;3.474;2022-07-29T12:37:01;1.30;;;1.30;;
67348;SDS011;54234;50.320;3.474;2022-07-29T12:39:26;1.40;;;1.40;;
67348;SDS011;54234;50.320;3.474;2022-07-29T12:41:53;1.30;;;1.30;;
67348;SDS011;54234;50.320;3.474;2022-07-29T12:44:18;1.20;;;1.20;;
67348;SDS011;54234;50.320;3.474;2022-07-29T12:46:43;1.20;;;1.20;;
67348;SDS011;54234;50.320;3.474;2022-07-29T12:49:11;1.10;;;1.10;;
67348;SDS011;54234;50.320;3.474;2022-07-29T12:51:45;1.10;;;1.10;;
67348;SDS011;54234;50.320;3.474;2022-07-29T12:54:14;1.10;;;1.10;;
67348;SDS011;54234;50.320;3.474;2022-07-29T12:56:40;1.30;;;1.30;;
67348;SDS011;54234;50.320;3.474;2022-07-29T12:59:18;1.30;;;1.30;;
67348;SDS011;54234;50.320;3.474;2022-07-29T13:01:44;1.40;;;1.40;;
67348;SDS011;54234;50.320;3.474;2022-07-29T13:04:12;1.50;;;1.50;;
67348;SDS011;54234;50.320;3.474;2022-07-29T13:06:48;1.50;;;1.50;;
67348;SDS011;54234;50.320;3.474;2022-07-29T13:09:22;1.60;;;1.60;;
67348;SDS011;54234;50.320;3.474;2022-07-29T13:11:49;1.50;;;1.50;;
67348;SDS011;54234;50.320;3.474;2022-07-29T13:14:31;1.30;;;1.30;;
67348;SDS011;54234;50.320;3.474;2022-07-29T13:17:00;1.40;;;1.40;;
67348;SDS011;54234;50.320;3.474;2022-07-29T13:19:36;1.50;;;1.50;;
67348;SDS011;54234;50.320;3.474;2022-07-29T13:22:02;1.70;;;1.70;;
67348;SDS011;54234;50.320;3.474;2022-07-29T13:24:27;1.80;;;1.80;;
67348;SDS011;54234;50.320;3.474;2022-07-29T13:26:52;1.50;;;1.50;;
67348;SDS011;54234;50.320;3.474;2022-07-29T13:29:17;1.30;;;1.30;;
67348;SDS011;54234;50.320;3.474;2022-07-29T13:31:43;1.10;;;1.10;;
67348;SDS011;54234;50.320;3.474;2022-07-29T13:34:08;1.20;;;1.20;;
67348;SDS011;54234;50.320;3.474;2022-07-29T13:36:34;1.00;;;1.00;;
67348;SDS011;54234;50.320;3.474;2022-07-29T13:38:59;1.10;;;1.10;;
67348;SDS011;54234;50.320;3.474;2022-07-29T13:41:26;1.30;;;1.30;;
67348;SDS011;54234;50.320;3.474;2022-07-29T13:43:51;1.50;;;1.50;;
67348;SDS011;54234;50.320;3.474;2022-07-29T13:46:16;1.38;;;1.38;;
67348;SDS011;54234;50.320;3.474;2022-07-29T13:48:41;1.60;;;1.60;;
67348;SDS011;54234;50.320;3.474;2022-07-29T13:51:07;1.40;;;1.40;;
67348;SDS011;54234;50.320;3.474;2022-07-29T13:53:32;1.20;;;1.20;;
67348;SDS011;54234;50.320;3.474;2022-07-29T13:55:57;1.20;;;1.20;;
67348;SDS011;54234;50.320;3.474;2022-07-29T13:58:23;1.00;;;1.00;;
67348;SDS011;54234;50.320;3.474;2022-07-29T14:00:48;0.90;;;0.90;;
67348;SDS011;54234;50.320;3.474;2022-07-29T14:03:14;0.80;;;0.80;;
67348;SDS011;54234;50.320;3.474;2022-07-29T14:05:39;0.80;;;0.80;;
67348;SDS011;54234;50.320;3.474;2022-07-29T14:08:04;0.80;;;0.80;;
67348;SDS011;54234;50.320;3.474;2022-07-29T14:10:29;0.80;;;0.80;;
67348;SDS011;54234;50.320;3.474;2022-07-29T14:12:54;0.70;;;0.70;;
67348;SDS011;54234;50.320;3.474;2022-07-29T14:15:20;0.60;;;0.60;;
67348;SDS011;54234;50.320;3.474;2022-07-29T14:17:45;0.57;;;0.57;;
67348;SDS011;54234;50.320;3.474;2022-07-29T14:20:10;0.60;;;0.60;;
67348;SDS011;54234;50.320;3.474;2022-07-29T14:22:35;0.60;;;0.60;;
67348;SDS011;54234;50.320;3.474;2022-07-29T14:25:01;0.50;;;0.50;;
67348;SDS011;54234;50.320;3.474;2022-07-29T14:27:26;0.50;;;0.50;;
67348;SDS011;54234;50.320;3.474;2022-07-29T14:29:51;0.60;;;0.60;;
67348;SDS011;54234;50.320;3.474;2022-07-29T14:32:16;0.60;;;0.60;;
67348;SDS011;54234;50.320;3.474;2022-07-29T14:34:42;0.60;;;0.60;;
67348;SDS011;54234;50.320;3.474;2022-07-29T14:37:07;0.70;;;0.70;;
67348;SDS011;54234;50.320;3.474;2022-07-29T14:39:33;0.60;;;0.60;;
67348;SDS011;54234;50.320;3.474;2022-07-29T14:41:59;0.70;;;0.70;;
67348;SDS011;54234;50.320;3.474;2022-07-29T14:44:24;0.70;;;0.70;;
67348;SDS011;54234;50.320;3.474;2022-07-29T14:46:54;0.60;;;0.60;;
67348;SDS011;54234;50.320;3.474;2022-07-29T14:49:19;0.60;;;0.60;;
67348;SDS011;54234;50.320;3.474;2022-07-29T14:51:44;0.60;;;0.60;;
67348;SDS011;54234;50.320;3.474;2022-07-29T14:54:09;0.60;;;0.60;;
67348;SDS011;54234;50.320;3.474;2022-07-29T14:56:35;0.53;;;0.53;;
67348;SDS011;54234;50.320;3.474;2022-07-29T14:59:00;0.50;;;0.50;;
67348;SDS011;54234;50.320;3.474;2022-07-29T15:01:25;0.50;;;0.50;;
67348;SDS011;54234;50.320;3.474;2022-07-29T15:03:51;0.50;;;0.50;;
67348;SDS011;54234;50.320;3.474;2022-07-29T15:06:16;0.50;;;0.50;;
67348;SDS011;54234;50.320;3.474;2022-07-29T15:08:41;0.50;;;0.50;;
67348;SDS011;54234;50.320;3.474;2022-07-29T15:11:07;0.50;;;0.50;;
67348;SDS011;54234;50.320;3.474;2022-07-29T15:13:32;0.40;;;0.40;;
67348;SDS011;54234;50.320;3.474;2022-07-29T15:15:58;0.40;;;0.40;;